createdAt,value
2022-11-29T00:00:49.988Z,0.45
2022-11-29T00:03:16.923Z,0.44
2022-11-29T00:05:43.604Z,0.43
2022-11-29T00:08:10.417Z,0.27
2022-11-29T00:10:38.015Z,0.38
2022-11-29T00:13:05.315Z,0.35
2022-11-29T00:15:36.032Z,0.33
2022-11-29T00:18:03.423Z,0.31
2022-11-29T00:20:30.178Z,0.29
2022-11-29T00:22:56.975Z,0.30
2022-11-29T00:25:24.236Z,0.31
2022-11-29T00:27:51.785Z,0.31
2022-11-29T00:30:20.251Z,0.28
2022-11-29T00:32:47.230Z,0.27
2022-11-29T00:35:14.045Z,0.26
2022-11-29T00:37:40.664Z,0.16
2022-11-29T00:40:08.306Z,0.25
2022-11-29T00:42:34.900Z,0.27
2022-11-29T00:45:01.580Z,0.25
2022-11-29T00:47:28.480Z,0.22
2022-11-29T00:49:55.089Z,0.11
2022-11-29T00:52:21.672Z,0.15
2022-11-29T00:54:48.587Z,0.15
2022-11-29T00:57:15.189Z,0.25
2022-11-29T00:59:41.785Z,0.24
2022-11-29T01:02:08.789Z,0.25
2022-11-29T01:04:35.458Z,0.23
2022-11-29T01:07:02.194Z,0.20
2022-11-29T01:09:29.214Z,0.15
2022-11-29T01:11:55.897Z,0.20
2022-11-29T01:14:22.572Z,0.21
2022-11-29T01:16:49.494Z,0.11
2022-11-29T01:19:16.197Z,0.20
2022-11-29T01:21:42.833Z,0.20
2022-11-29T01:24:09.687Z,0.21
2022-11-29T01:26:36.299Z,0.15
2022-11-29T01:29:02.921Z,0.22
2022-11-29T01:31:32.951Z,0.13
2022-11-29T01:34:01.972Z,0.20
2022-11-29T01:36:29.137Z,0.19
2022-11-29T01:38:58.218Z,0.17
2022-11-29T01:41:28.138Z,0.19
2022-11-29T01:44:05.659Z,0.14
2022-11-29T01:46:37.555Z,0.06
2022-11-29T01:49:10.472Z,0.15
2022-11-29T01:51:40.499Z,0.14
2022-11-29T01:54:09.569Z,0.14
2022-11-29T01:56:37.859Z,0.05
2022-11-29T01:59:09.324Z,0.03
2022-11-29T02:01:36.947Z,0.12
2022-11-29T02:04:05.345Z,0.12
2022-11-29T02:06:32.606Z,0.01
2022-11-29T02:08:59.263Z,-0.02
2022-11-29T02:11:58.038Z,0.04
2022-11-29T02:14:44.908Z,0.07
2022-11-29T02:17:47.242Z,0.07
2022-11-29T02:20:29.478Z,0.06
2022-11-29T02:23:46.136Z,0.08
2022-11-29T02:26:25.227Z,0.08
2022-11-29T02:29:36.457Z,0.03
2022-11-29T02:32:41.262Z,0.07
2022-11-29T02:35:10.530Z,0.05
2022-11-29T02:38:08.727Z,-0.03
2022-11-29T02:40:53.880Z,0.03
2022-11-29T02:43:31.200Z,0.02
2022-11-29T02:46:18.145Z,-0.02
2022-11-29T02:49:03.566Z,-0.01
2022-11-29T02:51:46.844Z,-0.01
2022-11-29T02:54:28.470Z,-0.10
2022-11-29T02:57:14.345Z,-0.04
2022-11-29T03:00:01.475Z,-0.03
2022-11-29T03:02:46.730Z,-0.05
2022-11-29T03:05:24.716Z,-0.06
2022-11-29T03:07:59.403Z,-0.06
2022-11-29T03:10:59.457Z,-0.09
2022-11-29T03:13:52.498Z,-0.10
2022-11-29T03:16:27.100Z,-0.11
2022-11-29T03:19:16.046Z,-0.12
2022-11-29T03:21:51.571Z,-0.22
2022-11-29T03:24:49.448Z,-0.16
2022-11-29T03:27:25.163Z,-0.16
2022-11-29T03:30:01.580Z,-0.26
2022-11-29T03:32:40.133Z,-0.18
2022-11-29T03:35:09.203Z,-0.18
2022-11-29T03:38:01.649Z,-0.18
2022-11-29T03:40:49.992Z,-0.17
2022-11-29T03:43:23.648Z,-0.16
2022-11-29T03:46:16.079Z,-0.32
2022-11-29T03:48:48.503Z,-0.24
2022-11-29T03:51:54.634Z,-0.24
2022-11-29T03:54:27.945Z,-0.16
2022-11-29T03:56:54.994Z,-0.17
2022-11-29T03:59:51.677Z,-0.28
2022-11-29T04:02:57.590Z,-0.17
2022-11-29T04:06:02.654Z,-0.19
2022-11-29T04:08:54.491Z,-0.27
2022-11-29T04:11:54.681Z,-0.20
2022-11-29T04:14:33.462Z,-0.20
2022-11-29T04:17:19.137Z,-0.24
2022-11-29T04:20:25.545Z,-0.27
2022-11-29T04:23:30.090Z,-0.30
2022-11-29T04:26:15.118Z,-0.32
2022-11-29T04:28:53.959Z,-0.36
2022-11-29T04:31:45.734Z,-0.38
2022-11-29T04:34:31.167Z,-0.40
2022-11-29T04:37:46.343Z,-0.39
2022-11-29T04:40:27.521Z,-0.40
2022-11-29T04:42:58.580Z,-0.44
2022-11-29T04:45:43.870Z,-0.43
2022-11-29T04:48:38.575Z,-0.42
2022-11-29T04:51:42.697Z,-0.42
2022-11-29T04:54:47.302Z,-0.40
2022-11-29T04:57:47.465Z,-0.38
2022-11-29T05:00:19.306Z,-0.38
2022-11-29T05:03:01.953Z,-0.40
2022-11-29T05:05:43.359Z,-0.38
2022-11-29T05:08:29.075Z,-0.44
2022-11-29T05:11:25.038Z,-0.36
2022-11-29T05:14:30.729Z,-0.39
2022-11-29T05:17:12.417Z,-0.47
2022-11-29T05:20:08.245Z,-0.39
2022-11-29T05:22:51.626Z,-0.40
2022-11-29T05:25:31.084Z,-0.38
2022-11-29T05:28:10.639Z,-0.47
2022-11-29T05:31:03.325Z,-0.39
2022-11-29T05:33:32.670Z,-0.40
2022-11-29T05:36:29.617Z,-0.40
2022-11-29T05:39:20.542Z,-0.41
2022-11-29T05:42:30.539Z,-0.44
2022-11-29T05:45:04.872Z,-0.45
2022-11-29T05:47:49.994Z,-0.47
2022-11-29T05:51:03.856Z,-0.50
2022-11-29T05:53:42.554Z,-0.52
2022-11-29T05:57:03.519Z,-0.54
2022-11-29T05:59:31.278Z,-0.63
2022-11-29T06:02:25.141Z,-0.54
2022-11-29T06:05:26.034Z,-0.56
2022-11-29T06:08:25.669Z,-0.54
2022-11-29T06:11:01.444Z,-0.54
2022-11-29T06:13:57.879Z,-0.56
2022-11-29T06:16:30.958Z,-0.64
2022-11-29T06:19:39.341Z,-0.72
2022-11-29T06:22:30.794Z,-0.68
2022-11-29T06:25:20.352Z,-0.73
2022-11-29T06:28:16.907Z,-0.67
2022-11-29T06:31:05.109Z,-0.66
2022-11-29T07:54:24.446Z,-0.49
2022-11-29T07:56:51.411Z,-0.47
2022-11-29T08:41:24.525Z,-0.03
2022-11-29T08:43:51.645Z,-0.02
2022-11-29T08:46:18.963Z,-0.48
2022-11-29T08:48:47.282Z,-0.42
2022-11-29T08:51:15.509Z,-0.44
2022-11-29T08:53:42.236Z,-0.49
2022-11-29T08:56:41.660Z,-0.60
2022-11-29T08:58:56.388Z,-0.49
2022-11-29T09:01:23.232Z,-0.50
2022-11-29T09:04:10.565Z,-0.58
2022-11-29T09:06:40.721Z,-0.50
2022-11-29T09:09:07.766Z,-0.50
2022-11-29T09:11:35.262Z,-0.53
2022-11-29T09:14:06.979Z,-0.55
2022-11-29T09:16:36.776Z,-0.56
2022-11-29T09:19:05.333Z,-0.64
2022-11-29T09:21:33.686Z,-0.52
2022-11-29T09:24:01.818Z,-0.52
2022-11-29T09:26:32.510Z,-0.52
2022-11-29T09:29:01.438Z,-0.56
2022-11-29T09:31:29.971Z,-0.56
2022-11-29T09:33:57.678Z,-0.60
2022-11-29T09:36:28.458Z,-0.62
2022-11-29T09:38:57.204Z,-0.67
2022-11-29T09:41:40.266Z,-0.67
2022-11-29T09:44:20.639Z,-0.68
2022-11-29T09:47:05.714Z,-0.69
2022-11-29T09:49:55.220Z,-0.68
2022-11-29T09:52:31.618Z,-0.65
2022-11-29T09:55:21.104Z,-0.64
2022-11-29T09:57:49.424Z,-0.63
2022-11-29T10:00:20.007Z,-0.64
2022-11-29T10:03:04.061Z,-0.63
2022-11-29T10:05:35.450Z,-0.63
2022-11-29T10:08:25.593Z,-0.63
2022-11-29T10:11:02.126Z,-0.64
2022-11-29T10:13:34.784Z,-0.69
2022-11-29T10:16:14.360Z,-0.64
2022-11-29T10:18:54.401Z,-0.65
2022-11-29T10:21:27.701Z,-0.69
2022-11-29T13:38:52.149Z,-0.31
2022-11-29T13:41:41.000Z,-0.31
2022-11-29T13:44:46.126Z,-0.82
2022-11-29T13:47:15.685Z,-0.72
2022-11-29T13:50:02.738Z,-0.76
2022-11-29T13:52:40.499Z,-0.81
2022-11-29T13:55:14.448Z,-0.90
2022-11-29T13:58:15.646Z,-0.85
2022-11-29T14:00:43.908Z,-0.87
2022-11-29T14:03:23.255Z,-0.90
2022-11-29T14:05:54.166Z,-0.90
2022-11-29T14:08:48.153Z,-1.00
2022-11-29T14:11:25.029Z,-0.93
2022-11-29T14:13:59.063Z,-0.96
2022-11-29T14:16:32.270Z,-0.97
2022-11-29T14:19:10.406Z,-1.09
2022-11-29T14:21:58.706Z,-0.98
2022-11-29T16:14:52.500Z,-0.50
2022-11-29T16:17:21.046Z,-0.50
2022-11-29T16:19:48.113Z,-0.90
2022-11-29T16:22:21.548Z,-0.93
2022-11-29T16:25:05.688Z,-0.94
2022-11-29T16:27:34.057Z,-1.05
2022-11-29T16:30:02.352Z,-1.00
2022-11-29T16:32:41.274Z,-1.03
2022-11-29T16:35:26.237Z,-1.05
2022-11-29T16:37:53.712Z,-1.15
2022-11-29T16:40:27.297Z,-1.10
2022-11-29T16:43:03.095Z,-1.17
2022-11-29T16:45:41.837Z,-1.18
2022-11-29T16:48:25.528Z,-1.15
2022-11-29T16:51:23.766Z,-1.11
2022-11-29T16:53:52.080Z,-1.12
2022-11-29T16:56:28.101Z,-1.13
2022-11-29T16:59:25.348Z,-1.13
2022-11-29T17:01:49.903Z,-1.21
2022-11-29T17:04:23.533Z,-1.13
2022-11-29T17:06:53.820Z,-1.15
2022-11-29T17:09:27.074Z,-1.15
2022-11-29T17:11:55.579Z,-1.24
2022-11-29T17:14:22.735Z,-1.17
2022-11-29T17:16:49.779Z,-1.19
2022-11-29T17:19:17.585Z,-1.18
2022-11-29T17:21:44.888Z,-1.27
2022-11-29T17:24:14.357Z,-1.18
2022-11-29T17:26:43.120Z,-1.19
2022-11-29T17:29:14.564Z,-1.19
2022-11-29T17:31:44.179Z,-1.20
2022-11-29T17:34:11.436Z,-1.27
2022-11-29T17:36:38.364Z,-1.28
2022-11-29T17:39:05.488Z,-1.18
2022-11-29T17:41:33.060Z,-1.19
2022-11-29T17:44:00.487Z,-1.27
2022-11-29T17:46:32.243Z,-1.17
2022-11-29T17:49:01.341Z,-1.17
2022-11-29T17:51:51.332Z,-1.18
2022-11-29T17:54:15.325Z,-1.17
2022-11-29T17:56:42.252Z,-1.18
2022-11-29T17:59:08.913Z,-1.18
2022-11-29T18:01:36.373Z,-1.28
2022-11-29T18:04:08.891Z,-1.22
2022-11-29T18:06:50.298Z,-1.22
2022-11-29T18:09:19.408Z,-1.34
2022-11-29T18:11:49.107Z,-1.27
2022-11-29T18:14:22.942Z,-1.26
2022-11-29T18:16:50.583Z,-1.28
2022-11-29T18:19:20.349Z,-1.28
2022-11-29T18:21:49.022Z,-1.29
2022-11-29T18:24:16.192Z,-1.28
2022-11-29T18:26:43.255Z,-1.28
2022-11-29T18:29:10.244Z,-1.30
2022-11-29T18:31:40.781Z,-1.30
2022-11-29T18:34:09.813Z,-1.29
2022-11-29T18:36:40.459Z,-1.29
2022-11-29T18:39:09.948Z,-1.32
2022-11-29T18:41:37.911Z,-1.31
2022-11-29T18:44:07.384Z,-1.41
2022-11-29T18:46:37.098Z,-1.31
2022-11-29T18:49:06.758Z,-1.30
2022-11-29T18:51:34.465Z,-1.30
2022-11-29T18:54:02.018Z,-1.27
2022-11-29T18:56:31.236Z,-1.28
2022-11-29T18:59:00.364Z,-1.34
2022-11-29T19:01:30.013Z,-1.27
2022-11-29T19:03:59.043Z,-1.26
2022-11-29T19:06:39.411Z,-1.36
2022-11-29T19:09:11.604Z,-1.25
2022-11-29T19:11:38.776Z,-1.22
2022-11-29T19:14:11.346Z,-1.21
2022-11-29T19:16:44.543Z,-1.20
2022-11-29T19:19:12.058Z,-1.18
2022-11-29T19:21:40.152Z,-1.17
2022-11-29T19:24:13.261Z,-1.19
2022-11-29T19:26:40.751Z,-1.22
2022-11-29T19:29:07.589Z,-1.23
2022-11-29T19:31:34.376Z,-1.35
2022-11-29T19:34:01.654Z,-1.27
2022-11-29T19:36:30.642Z,-1.29
2022-11-29T19:39:00.044Z,-1.35
2022-11-29T19:41:29.798Z,-1.30
2022-11-29T19:43:58.258Z,-1.30
2022-11-29T19:46:27.937Z,-1.40
2022-11-29T19:48:59.913Z,-1.33
2022-11-29T19:51:28.660Z,-1.40
2022-11-29T19:54:00.984Z,-1.35
2022-11-29T19:56:28.371Z,-1.35
2022-11-29T19:58:55.466Z,-1.38
2022-11-29T20:01:25.352Z,-1.40
2022-11-29T20:03:52.865Z,-1.41
2022-11-29T20:06:20.225Z,-1.44
2022-11-29T20:08:46.978Z,-1.40
2022-11-29T20:11:16.329Z,-1.41
2022-11-29T20:13:44.458Z,-1.41
2022-11-29T20:16:14.679Z,-1.44
2022-11-29T20:18:50.134Z,-1.40
2022-11-29T20:21:21.321Z,-1.41
2022-11-29T20:23:48.651Z,-1.42
2022-11-29T20:26:19.599Z,-1.45
2022-11-29T20:28:47.466Z,-1.51
2022-11-29T20:31:17.943Z,-1.44
2022-11-29T20:33:46.546Z,-1.43
2022-11-29T20:36:25.349Z,-1.43
2022-11-29T20:39:03.960Z,-1.43
2022-11-29T20:41:55.750Z,-1.43
2022-11-29T20:44:37.762Z,-1.43
2022-11-29T20:47:17.151Z,-1.46
2022-11-29T20:49:44.875Z,-1.45
2022-11-29T20:52:28.456Z,-1.48
2022-11-29T20:54:55.380Z,-1.57
2022-11-29T20:57:22.261Z,-1.47
2022-11-29T20:59:48.907Z,-1.49
2022-11-29T21:02:15.895Z,-1.50
2022-11-29T21:04:42.599Z,-1.63
2022-11-29T21:07:09.209Z,-1.55
2022-11-29T21:09:36.269Z,-1.53
2022-11-29T21:12:03.263Z,-1.52
2022-11-29T21:14:30.135Z,-1.55
2022-11-29T21:16:57.391Z,-1.56
2022-11-29T21:19:25.806Z,-1.68
2022-11-29T21:22:14.176Z,-1.71
2022-11-29T21:25:02.717Z,-1.67
2022-11-29T21:27:32.939Z,-1.58
2022-11-29T21:30:03.308Z,-1.59
2022-11-29T21:32:30.617Z,-1.57
2022-11-29T21:34:57.918Z,-1.56
2022-11-29T21:37:27.656Z,-1.57
2022-11-29T21:39:55.234Z,-1.59
2022-11-29T21:42:22.018Z,-1.59
2022-11-29T21:44:49.191Z,-1.62
2022-11-29T21:47:15.941Z,-1.58
2022-11-29T21:49:42.671Z,-1.69
2022-11-29T21:52:09.596Z,-1.55
2022-11-29T21:54:37.033Z,-1.54
2022-11-29T21:57:04.287Z,-1.53
2022-11-29T21:59:31.252Z,-1.52
2022-11-29T22:01:57.946Z,-1.52
2022-11-29T22:04:25.343Z,-1.51
2022-11-29T22:06:52.117Z,-1.50
2022-11-29T22:09:18.750Z,-1.50
2022-11-29T22:11:45.716Z,-1.58
2022-11-29T22:14:18.734Z,-1.48
2022-11-29T22:16:54.049Z,-1.50
2022-11-29T22:19:32.532Z,-1.48
2022-11-29T22:22:05.394Z,-1.46
2022-11-29T22:24:36.704Z,-1.54
2022-11-29T22:27:04.126Z,-1.44
2022-11-29T22:29:30.945Z,-1.42
2022-11-29T22:31:59.340Z,-1.50
2022-11-29T22:34:27.029Z,-1.41
2022-11-29T22:36:54.155Z,-1.40
2022-11-29T22:39:22.754Z,-1.40
2022-11-29T22:41:54.168Z,-1.39
2022-11-29T22:44:21.868Z,-1.38
2022-11-29T22:46:48.824Z,-1.38
2022-11-29T22:49:15.913Z,-1.47
2022-11-29T22:51:42.629Z,-1.37
2022-11-29T22:54:11.693Z,-1.39
2022-11-29T22:56:40.855Z,-1.47
2022-11-29T22:59:07.761Z,-1.48
2022-11-29T23:01:36.591Z,-1.39
2022-11-29T23:04:07.248Z,-1.39
2022-11-29T23:06:40.395Z,-1.37
2022-11-29T23:09:16.567Z,-1.44
2022-11-29T23:11:44.809Z,-1.34
2022-11-29T23:14:12.323Z,-1.34
2022-11-29T23:16:39.148Z,-1.37
2022-11-29T23:19:05.893Z,-1.43
2022-11-29T23:21:38.951Z,-1.33
2022-11-29T23:24:06.600Z,-1.31
2022-11-29T23:26:40.188Z,-1.31
2022-11-29T23:29:18.739Z,-1.35
2022-11-29T23:31:46.873Z,-1.34
2022-11-29T23:34:14.200Z,-1.35
2022-11-29T23:36:41.532Z,-1.35
2022-11-29T23:39:08.513Z,-1.37
2022-11-29T23:41:36.651Z,-1.47
2022-11-29T23:44:04.870Z,-1.40
2022-11-29T23:46:32.276Z,-1.39
2022-11-29T23:48:58.873Z,-1.39
2022-11-29T23:51:25.524Z,-1.40
2022-11-29T23:53:53.550Z,-1.41
2022-11-29T23:56:21.736Z,-1.42
2022-11-29T23:58:48.634Z,-1.43
